createdAt,value
2022-09-23T00:01:57.376Z,7.40
2022-09-23T00:04:27.170Z,7.35
2022-09-23T00:06:56.855Z,7.70
2022-09-23T00:09:27.204Z,7.40
2022-09-23T00:11:59.773Z,7.80
2022-09-23T00:14:30.806Z,8.52
2022-09-23T00:17:00.959Z,7.72
2022-09-23T00:19:30.792Z,8.32
2022-09-23T00:22:00.726Z,8.70
2022-09-23T00:24:32.638Z,7.60
2022-09-23T00:27:05.424Z,8.05
2022-09-23T00:29:37.123Z,8.18
2022-09-23T00:32:07.764Z,10.25
2022-09-23T00:34:37.354Z,7.88
2022-09-23T00:37:10.338Z,8.02
2022-09-23T00:39:40.015Z,7.25
2022-09-23T00:42:16.938Z,7.85
2022-09-23T00:44:50.654Z,8.68
2022-09-23T00:50:02.249Z,8.20
2022-09-23T00:52:33.481Z,7.68
2022-09-23T00:55:07.948Z,7.80
2022-09-23T00:57:42.430Z,7.05
2022-09-23T01:00:15.666Z,8.38
2022-09-23T01:02:45.319Z,8.90
2022-09-23T01:05:15.766Z,8.35
2022-09-23T01:07:45.411Z,7.20
2022-09-23T01:10:17.378Z,7.88
2022-09-23T01:13:16.096Z,9.18
2022-09-23T01:15:52.649Z,7.50
2022-09-23T01:18:34.882Z,8.63
2022-09-23T01:21:22.958Z,9.05
2022-09-23T01:24:31.826Z,7.90
2022-09-23T01:27:13.186Z,8.32
2022-09-23T01:30:19.158Z,8.00
2022-09-23T01:33:08.321Z,8.95
2022-09-23T01:35:50.603Z,7.85
2022-09-23T01:38:29.631Z,8.00
2022-09-23T01:41:08.975Z,8.52
2022-09-23T01:43:46.154Z,9.18
2022-09-23T01:46:24.407Z,9.55
2022-09-23T01:49:09.436Z,9.80
2022-09-23T01:51:43.407Z,9.00
2022-09-23T01:54:18.709Z,8.70
2022-09-23T01:56:57.014Z,9.13
2022-09-23T01:59:34.695Z,8.70
2022-09-23T02:02:10.281Z,9.32
2022-09-23T02:04:48.859Z,9.18
2022-09-23T02:07:23.078Z,9.25
2022-09-23T02:09:59.059Z,9.93
2022-09-23T02:12:32.959Z,8.75
2022-09-23T02:15:07.103Z,9.10
2022-09-23T02:17:41.632Z,8.75
2022-09-23T02:20:20.826Z,9.20
2022-09-23T02:22:56.038Z,9.57
2022-09-23T02:25:28.925Z,9.30
2022-09-23T02:28:03.473Z,8.83
2022-09-23T02:30:39.341Z,10.18
2022-09-23T02:33:14.077Z,9.23
2022-09-23T02:35:53.829Z,8.25
2022-09-23T02:38:32.006Z,10.05
2022-09-23T02:41:10.216Z,8.80
2022-09-23T02:43:49.160Z,9.77
2022-09-23T02:46:19.867Z,9.88
2022-09-23T02:48:55.169Z,9.25
2022-09-23T02:51:28.956Z,9.05
2022-09-23T02:56:28.937Z,8.95
2022-09-23T02:58:58.798Z,9.48
2022-09-23T03:01:39.494Z,10.50
2022-09-23T03:04:17.462Z,9.82
2022-09-23T03:07:03.553Z,9.35
2022-09-23T03:09:38.322Z,9.25
2022-09-23T03:12:17.532Z,9.00
2022-09-23T03:14:55.620Z,9.95
2022-09-23T03:17:32.296Z,9.13
2022-09-23T03:20:10.912Z,9.68
2022-09-23T03:22:48.590Z,10.05
2022-09-23T03:25:22.633Z,10.20
2022-09-23T03:27:52.649Z,9.73
2022-09-23T03:30:22.413Z,8.30
2022-09-23T03:32:53.749Z,9.73
2022-09-23T03:35:26.962Z,10.25
2022-09-23T03:38:09.197Z,10.55
2022-09-23T03:40:43.557Z,10.07
2022-09-23T03:43:14.452Z,9.65
2022-09-23T03:45:45.032Z,9.52
2022-09-23T03:48:15.154Z,10.15
2022-09-23T03:50:44.728Z,11.05
2022-09-23T03:53:18.395Z,9.77
2022-09-23T03:55:48.358Z,9.45
2022-09-23T03:58:18.308Z,10.63
2022-09-23T04:00:49.429Z,10.45
2022-09-23T04:03:19.160Z,10.23
2022-09-23T04:05:48.871Z,9.57
2022-09-23T04:08:21.195Z,10.68
2022-09-23T04:10:54.763Z,10.10
2022-09-23T04:15:53.913Z,8.80
2022-09-23T04:18:24.043Z,9.25
2022-09-23T04:20:53.708Z,8.70
2022-09-23T04:23:26.846Z,9.25
2022-09-23T04:25:57.132Z,9.65
2022-09-23T04:28:26.885Z,10.02
2022-09-23T04:30:57.957Z,10.07
2022-09-23T04:33:28.110Z,9.35
2022-09-23T04:35:59.042Z,8.95
2022-09-23T04:38:31.557Z,9.18
2022-09-23T04:41:01.681Z,9.05
2022-09-23T04:43:31.779Z,9.95
2022-09-23T04:46:03.377Z,10.18
2022-09-23T04:48:33.483Z,10.32
2022-09-23T04:51:06.357Z,8.60
2022-09-23T04:53:39.884Z,9.10
2022-09-23T04:56:12.606Z,10.43
2022-09-23T04:58:43.377Z,10.25
2022-09-23T05:01:14.291Z,9.32
2022-09-23T05:03:44.447Z,9.77
2022-09-23T05:06:16.501Z,10.25
2022-09-23T05:08:54.099Z,10.60
2022-09-23T05:11:24.461Z,9.63
2022-09-23T05:13:55.770Z,11.80
2022-09-23T05:16:26.852Z,10.68
2022-09-23T05:18:57.373Z,10.82
2022-09-23T05:21:29.207Z,11.20
2022-09-23T05:24:02.140Z,10.30
2022-09-23T05:26:34.018Z,11.33
2022-09-23T05:29:04.301Z,11.30
2022-09-23T05:31:37.112Z,10.35
2022-09-23T05:34:08.734Z,11.18
2022-09-23T05:36:39.974Z,12.13
2022-09-23T05:39:12.333Z,11.00
2022-09-23T05:41:43.608Z,11.68
2022-09-23T05:44:13.253Z,12.18
2022-09-23T05:46:43.059Z,11.43
2022-09-23T05:49:12.861Z,10.50
2022-09-23T05:51:42.563Z,12.45
2022-09-23T05:54:14.935Z,11.30
2022-09-23T05:56:44.566Z,11.18
2022-09-23T05:59:14.122Z,11.63
2022-09-23T06:01:43.847Z,11.15
2022-09-23T06:04:15.938Z,11.40
2022-09-23T06:06:46.227Z,11.45
2022-09-23T06:09:18.341Z,21.00
2022-09-23T06:11:47.906Z,36.38
2022-09-23T06:14:17.916Z,17.50
2022-09-23T06:16:47.620Z,25.02
2022-09-23T06:19:17.254Z,29.00
2022-09-23T06:21:46.887Z,26.13
2022-09-23T06:24:22.895Z,39.65
2022-09-23T06:26:55.257Z,69.85
2022-09-23T06:29:24.891Z,21.80
2022-09-23T06:31:59.723Z,26.00
2022-09-23T06:34:30.386Z,32.65
2022-09-23T06:37:11.507Z,37.47
2022-09-23T06:39:49.402Z,48.50
2022-09-23T06:42:21.298Z,27.02
2022-09-23T06:44:50.901Z,32.10
2022-09-23T06:47:20.655Z,38.60
2022-09-23T06:49:51.666Z,32.50
2022-09-23T06:52:21.310Z,45.35
2022-09-23T06:54:53.658Z,73.28
2022-09-23T06:57:24.525Z,88.80
2022-09-23T06:59:54.128Z,38.97
2022-09-23T07:02:23.881Z,66.45
2022-09-23T07:04:57.214Z,84.35
2022-09-23T07:07:26.779Z,146.57
2022-09-23T07:09:59.187Z,217.88
2022-09-23T07:12:28.899Z,153.10
2022-09-23T07:14:58.570Z,387.17
2022-09-23T07:17:28.358Z,282.17
2022-09-23T07:19:58.591Z,375.95
2022-09-23T07:22:28.878Z,108.15
2022-09-23T07:25:01.124Z,53.47
2022-09-23T07:27:31.137Z,44.20
2022-09-23T07:30:00.814Z,28.13
2022-09-23T07:32:40.394Z,23.67
2022-09-23T07:35:14.350Z,19.85
2022-09-23T07:37:43.938Z,19.73
2022-09-23T07:40:16.334Z,39.65
2022-09-23T07:42:45.926Z,17.73
2022-09-23T07:45:15.829Z,52.78
2022-09-23T07:47:45.944Z,54.75
2022-09-23T07:50:15.993Z,14.55
2022-09-23T07:52:45.843Z,16.98
2022-09-23T07:55:21.033Z,17.35
2022-09-23T07:57:50.846Z,36.78
2022-09-23T08:00:21.494Z,19.20
2022-09-23T08:02:53.081Z,16.63
2022-09-23T08:05:22.956Z,16.45
2022-09-23T08:07:52.650Z,16.65
2022-09-23T08:10:24.752Z,11.82
2022-09-23T08:12:54.452Z,11.43
2022-09-23T08:15:24.033Z,12.25
2022-09-23T08:17:53.650Z,10.48
2022-09-23T08:20:35.540Z,10.27
2022-09-23T08:23:05.138Z,13.00
2022-09-23T08:25:37.518Z,33.05
2022-09-23T08:28:07.237Z,27.00
2022-09-23T08:30:37.398Z,36.97
2022-09-23T08:33:07.283Z,20.60
2022-09-23T08:35:36.948Z,12.45
2022-09-23T08:38:06.899Z,15.02
2022-09-23T08:40:42.589Z,11.48
2022-09-23T08:43:21.993Z,8.98
2022-09-23T08:45:53.386Z,11.18
2022-09-23T08:48:30.025Z,9.20
2022-09-23T08:51:07.109Z,9.82
2022-09-23T08:53:50.412Z,9.20
2022-09-23T08:56:25.914Z,11.23
2022-09-23T08:59:18.515Z,9.50
2022-09-23T09:01:50.824Z,9.32
2022-09-23T09:04:26.295Z,10.43
2022-09-23T09:07:24.487Z,12.57
2022-09-23T09:09:54.486Z,9.40
2022-09-23T09:12:31.652Z,9.90
2022-09-23T09:15:33.030Z,11.50
2022-09-23T09:18:08.007Z,12.00
2022-09-23T09:20:51.758Z,11.52
2022-09-23T09:25:55.381Z,8.13
2022-09-23T09:28:34.197Z,9.13
2022-09-23T09:31:05.466Z,91.47
2022-09-23T09:33:44.804Z,13.13
2022-09-23T09:36:27.668Z,8.77
2022-09-23T09:38:58.676Z,10.07
2022-09-23T09:41:31.407Z,10.70
2022-09-23T09:44:10.585Z,8.93
2022-09-23T09:46:52.281Z,13.27
2022-09-23T09:49:29.027Z,9.00
2022-09-23T09:52:15.525Z,16.10
2022-09-23T09:54:45.787Z,11.13
2022-09-23T09:57:26.961Z,53.38
2022-09-23T10:00:02.047Z,90.13
2022-09-23T10:02:36.686Z,10.40
2022-09-23T10:05:10.350Z,9.30
2022-09-23T10:07:40.357Z,7.82
2022-09-23T10:10:36.697Z,7.85
2022-09-23T10:13:18.075Z,10.65
2022-09-23T10:16:05.421Z,7.72
2022-09-23T10:18:39.229Z,7.82
2022-09-23T10:21:15.368Z,7.90
2022-09-23T10:23:54.717Z,8.68
2022-09-23T10:26:32.771Z,8.40
2022-09-23T10:29:23.141Z,8.55
2022-09-23T10:32:22.344Z,8.45
2022-09-23T10:34:55.307Z,8.23
2022-09-23T10:37:32.973Z,8.30
2022-09-23T10:40:29.405Z,10.13
2022-09-23T10:43:25.954Z,8.52
2022-09-23T10:46:15.070Z,8.13
2022-09-23T10:49:01.279Z,8.15
2022-09-23T10:51:40.275Z,7.22
2022-09-23T10:54:23.296Z,7.70
2022-09-23T10:57:00.630Z,7.35
2022-09-23T10:59:54.504Z,7.82
2022-09-23T11:02:45.583Z,9.32
2022-09-23T11:05:38.508Z,6.93
2022-09-23T11:08:27.621Z,7.70
2022-09-23T11:11:34.180Z,7.78
2022-09-23T11:14:15.930Z,7.72
2022-09-23T11:17:02.519Z,7.55
2022-09-23T11:19:57.309Z,7.15
2022-09-23T11:22:47.159Z,7.95
2022-09-23T11:25:30.419Z,8.48
2022-09-23T11:28:25.510Z,9.73
2022-09-23T11:31:04.428Z,7.47
2022-09-23T11:33:46.882Z,8.23
2022-09-23T11:36:24.578Z,8.02
2022-09-23T11:39:01.357Z,8.52
2022-09-23T11:41:34.179Z,9.63
2022-09-23T11:44:14.049Z,9.40
2022-09-23T11:46:47.861Z,9.35
2022-09-23T11:49:22.010Z,7.82
2022-09-23T11:52:03.814Z,7.75
2022-09-23T11:54:43.134Z,8.27
2022-09-23T11:57:27.490Z,8.82
2022-09-23T12:00:03.298Z,8.57
2022-09-23T12:02:54.141Z,8.32
2022-09-23T12:05:33.761Z,8.48
2022-09-23T12:08:10.005Z,7.70
2022-09-23T12:10:50.707Z,9.30
2022-09-23T12:13:27.690Z,7.00
2022-09-23T12:16:12.905Z,6.35
2022-09-23T12:18:59.125Z,7.03
2022-09-23T12:21:52.932Z,5.25
2022-09-23T12:24:49.218Z,6.05
2022-09-23T12:27:32.004Z,6.85
2022-09-23T12:30:04.918Z,6.53
2022-09-23T12:32:36.434Z,6.30
2022-09-23T12:35:08.218Z,6.82
2022-09-23T12:37:41.293Z,7.53
2022-09-23T12:40:20.599Z,7.15
2022-09-23T12:42:53.580Z,8.10
2022-09-23T12:45:41.747Z,7.82
2022-09-23T12:48:42.568Z,7.57
2022-09-23T12:51:19.287Z,7.35
2022-09-23T12:53:59.943Z,7.47
2022-09-23T12:56:45.486Z,7.95
2022-09-23T12:59:28.657Z,7.63
2022-09-23T13:01:59.433Z,8.35
2022-09-23T13:04:51.059Z,8.80
2022-09-23T13:07:25.889Z,9.32
2022-09-23T13:10:02.851Z,8.38
2022-09-23T13:12:38.870Z,8.18
2022-09-23T13:15:20.185Z,8.60
2022-09-23T13:17:49.763Z,9.00
2022-09-23T13:20:36.962Z,8.77
2022-09-23T13:23:34.048Z,7.63
2022-09-23T13:26:12.790Z,7.85
2022-09-23T13:28:56.816Z,7.22
2022-09-23T13:31:29.186Z,7.07
2022-09-23T13:34:05.907Z,8.23
2022-09-23T13:36:46.257Z,7.13
2022-09-23T13:39:19.226Z,7.15
2022-09-23T13:41:48.996Z,5.55
2022-09-23T13:44:21.913Z,6.35
2022-09-23T13:46:58.252Z,6.63
2022-09-23T13:49:31.109Z,7.40
2022-09-23T13:52:02.153Z,7.57
2022-09-23T13:54:36.292Z,9.75
2022-09-23T13:57:06.569Z,8.20
2022-09-23T13:59:40.656Z,7.97
2022-09-23T14:02:16.892Z,7.95
2022-09-23T14:04:46.704Z,8.75
2022-09-23T14:07:19.177Z,8.57
2022-09-23T14:09:51.438Z,9.07
2022-09-23T14:12:22.461Z,9.98
2022-09-23T14:14:54.442Z,9.95
2022-09-23T14:17:26.659Z,10.48
2022-09-23T14:19:56.381Z,10.52
2022-09-23T14:22:27.842Z,9.85
2022-09-23T14:24:59.078Z,11.65
2022-09-23T14:27:32.317Z,10.57
2022-09-23T14:30:04.764Z,9.88
2022-09-23T14:32:37.336Z,9.60
2022-09-23T14:35:21.793Z,9.55
2022-09-23T14:38:07.257Z,9.95
2022-09-23T14:40:39.840Z,10.50
2022-09-23T14:43:23.628Z,10.97
2022-09-23T14:48:30.888Z,11.32
2022-09-23T14:51:02.106Z,11.27
2022-09-23T14:53:38.362Z,10.93
2022-09-23T14:56:15.818Z,10.88
2022-09-23T14:58:52.391Z,12.00
2022-09-23T15:01:39.469Z,10.80
2022-09-23T15:04:35.552Z,11.48
2022-09-23T15:07:10.049Z,10.73
2022-09-23T15:09:42.836Z,12.38
2022-09-23T15:12:16.432Z,17.02
2022-09-23T15:17:30.195Z,11.93
2022-09-23T15:20:05.555Z,13.25
2022-09-23T15:22:45.350Z,11.80
2022-09-23T15:25:20.965Z,12.95
2022-09-23T15:28:02.493Z,12.65
2022-09-23T15:30:33.457Z,15.70
2022-09-23T15:33:03.041Z,16.08
2022-09-23T15:35:36.061Z,16.27
2022-09-23T15:38:06.073Z,14.90
2022-09-23T15:40:39.132Z,16.35
2022-09-23T15:43:21.115Z,15.77
2022-09-23T15:45:53.506Z,17.60
2022-09-23T15:48:28.291Z,17.10
2022-09-23T15:51:05.566Z,19.90
2022-09-23T15:53:36.559Z,19.48
2022-09-23T15:56:06.448Z,19.55
2022-09-23T15:58:36.576Z,18.67
2022-09-23T16:01:07.071Z,17.73
2022-09-23T16:03:36.665Z,16.70
2022-09-23T16:06:15.430Z,19.17
2022-09-23T16:08:45.713Z,17.67
2022-09-23T16:11:21.942Z,16.65
2022-09-23T16:13:51.493Z,17.60
2022-09-23T16:16:21.666Z,18.05
2022-09-23T16:18:51.903Z,18.05
2022-09-23T16:21:26.717Z,17.60
2022-09-23T16:23:57.390Z,17.13
2022-09-23T16:26:30.107Z,17.20
2022-09-23T16:29:01.725Z,20.60
2022-09-23T16:31:32.880Z,20.85
2022-09-23T16:34:03.066Z,20.23
2022-09-23T16:36:36.905Z,18.58
2022-09-23T16:39:09.574Z,19.05
2022-09-23T16:41:39.207Z,17.80
2022-09-23T16:44:10.783Z,18.38
2022-09-23T16:46:43.000Z,18.35
2022-09-23T16:49:14.239Z,18.88
2022-09-23T16:51:46.477Z,17.15
2022-09-23T16:54:17.428Z,19.10
2022-09-23T16:56:47.239Z,20.27
2022-09-23T16:59:18.212Z,19.83
2022-09-23T17:02:00.719Z,18.75
2022-09-23T17:04:30.493Z,18.38
2022-09-23T17:07:02.750Z,17.08
2022-09-23T17:09:32.616Z,15.95
2022-09-23T17:12:11.981Z,16.67
2022-09-23T17:14:41.727Z,16.13
2022-09-23T17:17:11.590Z,15.60
2022-09-23T17:19:42.041Z,17.83
2022-09-23T17:22:14.530Z,18.80
2022-09-23T17:24:44.045Z,21.60
2022-09-23T17:27:15.831Z,21.23
2022-09-23T17:29:46.101Z,20.20
2022-09-23T17:32:15.679Z,22.52
2022-09-23T17:34:46.265Z,21.30
2022-09-23T17:37:18.608Z,24.10
2022-09-23T17:39:48.123Z,23.20
2022-09-23T17:42:19.450Z,21.70
2022-09-23T17:44:49.136Z,20.33
2022-09-23T17:47:18.827Z,22.33
2022-09-23T17:49:49.971Z,20.95
2022-09-23T17:52:22.557Z,19.60
2022-09-23T17:54:55.125Z,21.30
2022-09-23T17:57:25.025Z,19.13
2022-09-23T17:59:56.149Z,19.30
2022-09-23T18:02:25.839Z,19.70
2022-09-23T18:04:55.912Z,19.63
2022-09-23T18:07:28.094Z,18.85
2022-09-23T18:09:57.700Z,20.90
2022-09-23T18:12:27.546Z,21.65
2022-09-23T18:14:57.143Z,19.92
2022-09-23T18:17:26.758Z,19.52
2022-09-23T18:19:56.305Z,20.25
2022-09-23T18:22:28.564Z,19.77
2022-09-23T18:24:58.812Z,19.25
2022-09-23T18:27:28.489Z,16.67
2022-09-23T18:29:58.064Z,15.63
2022-09-23T18:32:27.735Z,14.73
2022-09-23T18:34:57.308Z,15.10
2022-09-23T18:37:29.551Z,14.45
2022-09-23T18:39:59.121Z,12.63
2022-09-23T18:42:29.736Z,10.93
2022-09-23T18:44:59.548Z,11.38
2022-09-23T18:47:42.975Z,10.68
2022-09-23T18:50:27.462Z,9.95
2022-09-23T18:53:00.515Z,10.05
2022-09-23T18:55:30.423Z,9.60
2022-09-23T18:58:00.229Z,10.40
2022-09-23T19:00:30.103Z,10.85
2022-09-23T19:02:59.914Z,10.30
2022-09-23T19:05:29.448Z,9.85
2022-09-23T19:08:01.785Z,9.98
2022-09-23T19:10:31.323Z,10.45
2022-09-23T19:13:04.062Z,10.98
2022-09-23T19:15:33.646Z,10.88
2022-09-23T19:18:03.293Z,10.65
2022-09-23T19:20:32.946Z,11.45
2022-09-23T19:23:05.080Z,10.30
2022-09-23T19:25:38.357Z,12.43
2022-09-23T19:28:08.449Z,12.48
2022-09-23T19:30:38.887Z,13.82
2022-09-23T19:33:09.166Z,14.23
2022-09-23T19:35:39.663Z,14.65
2022-09-23T19:38:12.036Z,13.93
2022-09-23T19:40:41.622Z,14.50
2022-09-23T19:43:12.374Z,15.02
2022-09-23T19:45:42.956Z,14.48
2022-09-23T19:48:12.938Z,14.57
2022-09-23T19:50:43.123Z,12.70
2022-09-23T19:53:15.722Z,12.18
2022-09-23T19:55:46.051Z,12.43
2022-09-23T19:58:16.299Z,11.95
2022-09-23T20:00:46.087Z,11.15
2022-09-23T20:03:16.060Z,11.82
2022-09-23T20:05:46.119Z,12.23
2022-09-23T20:08:18.290Z,11.93
2022-09-23T20:10:48.274Z,11.02
2022-09-23T20:13:17.895Z,12.13
2022-09-23T20:15:48.430Z,10.27
2022-09-23T20:18:18.230Z,10.18
2022-09-23T20:20:47.816Z,10.80
2022-09-23T20:23:19.906Z,9.30
2022-09-23T20:26:10.558Z,10.85
2022-09-23T20:28:40.114Z,12.95
2022-09-23T20:31:09.711Z,11.07
2022-09-23T20:33:42.242Z,11.98
2022-09-23T20:36:13.417Z,12.60
2022-09-23T20:38:45.967Z,14.05
2022-09-23T20:41:18.180Z,15.23
2022-09-23T20:43:48.309Z,14.10
2022-09-23T20:46:17.999Z,13.90
2022-09-23T20:48:49.355Z,13.88
2022-09-23T20:51:19.153Z,14.00
2022-09-23T20:53:54.705Z,15.05
2022-09-23T20:56:25.358Z,15.45
2022-09-23T20:58:55.321Z,14.82
2022-09-23T21:01:24.977Z,14.48
2022-09-23T21:03:56.176Z,14.70
2022-09-23T21:06:27.144Z,16.30
2022-09-23T21:08:59.462Z,14.38
2022-09-23T21:11:29.234Z,15.30
2022-09-23T21:14:01.219Z,16.08
2022-09-23T21:16:31.377Z,15.55
2022-09-23T21:19:03.012Z,15.10
2022-09-23T21:21:32.806Z,16.73
2022-09-23T21:24:36.002Z,16.85
2022-09-23T21:26:55.225Z,17.88
2022-09-23T21:29:24.829Z,16.80
2022-09-23T21:31:54.383Z,17.52
2022-09-23T21:34:26.226Z,17.52
2022-09-23T21:36:56.738Z,17.38
2022-09-23T21:39:28.849Z,18.25
2022-09-23T21:41:58.372Z,17.10
2022-09-23T21:44:27.881Z,15.52
2022-09-23T21:46:57.599Z,19.20
2022-09-23T21:49:27.297Z,18.33
2022-09-23T21:51:58.964Z,19.48
2022-09-23T21:54:32.148Z,18.13
2022-09-23T21:57:01.781Z,21.00
2022-09-23T21:59:31.463Z,19.00
2022-09-23T22:02:01.533Z,18.98
2022-09-23T22:04:31.965Z,20.38
2022-09-23T22:07:01.899Z,21.13
2022-09-23T22:09:34.168Z,20.98
2022-09-23T22:12:12.832Z,19.85
2022-09-23T22:14:43.516Z,21.65
2022-09-23T22:17:14.567Z,20.40
2022-09-23T22:19:47.187Z,20.35
2022-09-23T22:22:19.621Z,19.27
2022-09-23T22:24:52.066Z,18.88
2022-09-23T22:27:23.809Z,18.98
2022-09-23T22:30:05.853Z,18.65
2022-09-23T22:32:54.263Z,18.65
2022-09-23T22:35:24.716Z,17.95
2022-09-23T22:37:54.274Z,19.77
2022-09-23T22:40:26.515Z,20.13
2022-09-23T22:42:56.404Z,18.75
2022-09-23T22:45:26.810Z,17.30
2022-09-23T22:47:56.451Z,16.45
2022-09-23T22:50:25.973Z,17.67
2022-09-23T22:52:55.533Z,17.08
2022-09-23T22:55:28.187Z,16.65
2022-09-23T22:58:06.668Z,15.90
2022-09-23T23:00:46.474Z,17.13
2022-09-23T23:03:20.579Z,15.23
2022-09-23T23:05:50.201Z,15.05
2022-09-23T23:08:19.760Z,15.48
2022-09-23T23:10:52.945Z,14.85
2022-09-23T23:13:22.490Z,14.95
2022-09-23T23:15:52.413Z,14.57
2022-09-23T23:18:21.902Z,15.88
2022-09-23T23:20:51.444Z,15.50
2022-09-23T23:23:21.022Z,14.20
2022-09-23T23:25:53.225Z,13.30
2022-09-23T23:28:22.890Z,15.13
2022-09-23T23:30:52.491Z,16.52
2022-09-23T23:33:22.082Z,13.52
2022-09-23T23:35:53.221Z,15.60
2022-09-23T23:38:23.107Z,14.90
2022-09-23T23:40:56.377Z,15.23
2022-09-23T23:43:26.556Z,16.05
2022-09-23T23:45:57.191Z,15.25
2022-09-23T23:48:26.986Z,15.32
2022-09-23T23:50:57.082Z,17.33
2022-09-23T23:53:27.537Z,16.27
2022-09-23T23:56:00.513Z,15.65
2022-09-23T23:58:30.185Z,16.13
